Time;durP1;ratioP1;P1;durP2;ratioP2;P2;SDS_P1;SDS_P2;PMS_P1;PMS_P2;Temp;Humidity;BMP_temperature;BMP_pressure;BME280_temperature;BME280_humidity;BME280_pressure;Samples;Min_cycle;Max_cycle;Signal;HPM_P1;HPM_P2
2021/05/25 00:00:14;;;;;;;2.70;1.30;;;9.10;99.90;;;9.70;100.00;97729.09;5067715;28;20460;-76
2021/05/25 00:02:44;;;;;;;1.40;1.20;;;9.20;99.90;;;9.70;100.00;97734.31;5059536;28;20460;-77
2021/05/25 00:05:18;;;;;;;1.87;1.30;;;9.20;99.90;;;9.64;100.00;97735.06;5061633;28;20547;-75
2021/05/25 00:07:46;;;;;;;1.90;1.47;;;9.00;99.90;;;9.67;100.00;97729.47;5064173;28;20484;-76
2021/05/25 00:10:16;;;;;;;1.80;1.13;;;9.10;99.90;;;9.69;100.00;97728.28;5070643;28;20452;-76
2021/05/25 00:12:45;;;;;;;3.17;1.70;;;9.10;99.90;;;9.69;100.00;97730.06;5060823;28;20514;-77
2021/05/25 00:15:17;;;;;;;3.00;1.40;;;9.10;99.90;;;9.59;100.00;97718.16;5066275;28;20504;-76
2021/05/25 00:17:46;;;;;;;3.10;1.20;;;9.10;99.90;;;9.61;100.00;97723.22;5065778;28;20448;-76
2021/05/25 00:20:17;;;;;;;3.30;1.43;;;9.10;99.90;;;9.55;100.00;97732.59;5071355;28;20459;-76
2021/05/25 00:22:46;;;;;;;6.37;1.50;;;9.00;99.90;;;9.55;100.00;97727.34;5071241;28;20440;-77
2021/05/25 00:25:17;;;;;;;2.93;1.43;;;9.00;99.90;;;9.55;100.00;97727.34;5067402;28;20450;-76
2021/05/25 00:27:46;;;;;;;2.60;1.37;;;8.90;99.90;;;9.54;100.00;97730.97;5069497;28;21007;-76
2021/05/25 00:30:18;;;;;;;2.27;1.77;;;9.00;99.90;;;9.51;100.00;97726.13;5069640;28;20448;-76
2021/05/25 00:32:47;;;;;;;3.20;1.50;;;9.00;99.90;;;9.54;100.00;97730.97;5069006;28;20998;-76
2021/05/25 00:35:15;;;;;;;4.20;1.53;;;9.00;99.90;;;9.51;100.00;97731.34;5071179;28;20614;-76
2021/05/25 00:37:43;;;;;;;6.07;1.87;;;9.00;99.90;;;9.52;100.00;97719.09;5067035;28;20848;-76
2021/05/25 00:40:14;;;;;;;2.13;1.43;;;8.90;99.90;;;9.49;100.00;97728.13;5065017;28;20521;-76
2021/05/25 00:42:46;;;;;;;3.73;1.30;;;8.90;99.90;;;9.45;100.00;97731.28;5066999;28;21004;-76
2021/05/25 00:45:16;;;;;;;6.23;1.40;;;8.90;99.90;;;9.45;100.00;97737.31;5063888;28;20619;-76
2021/05/25 00:47:45;;;;;;;6.83;1.73;;;8.80;99.90;;;9.45;100.00;97731.28;5066123;28;20503;-76
2021/05/25 00:50:19;;;;;;;3.23;1.40;;;8.80;99.90;;;9.49;100.00;97728.13;5065058;28;20461;-76
2021/05/25 00:52:50;;;;;;;2.50;1.20;;;9.00;99.90;;;9.52;100.00;97735.56;5067089;28;20795;-76
2021/05/25 00:55:22;;;;;;;2.13;1.40;;;9.00;99.90;;;9.44;100.00;97722.66;5066073;28;20488;-76
2021/05/25 00:57:54;;;;;;;6.93;1.30;;;8.90;99.90;;;9.44;100.00;97729.69;5068887;28;20809;-76
2021/05/25 01:00:27;;;;;;;1.23;1.13;;;9.00;99.90;;;9.40;100.00;97731.88;5065173;28;20468;-76
2021/05/25 01:02:56;;;;;;;4.87;1.20;;;8.90;99.90;;;9.33;100.00;97727.56;5067573;28;20533;-76
2021/05/25 01:05:25;;;;;;;4.10;1.40;;;8.70;99.90;;;9.37;100.00;97723.59;5069351;28;20451;-76
2021/05/25 01:07:53;;;;;;;2.80;1.33;;;8.80;99.90;;;9.35;100.00;97720.34;5068584;28;20460;-76
2021/05/25 01:10:27;;;;;;;6.40;1.37;;;8.70;99.90;;;9.39;100.00;97722.41;5064739;28;20464;-76
2021/05/25 01:12:59;;;;;;;1.57;1.20;;;8.70;99.90;;;9.37;100.00;97724.38;5068961;28;20479;-76
2021/05/25 01:15:27;;;;;;;4.43;1.40;;;8.70;99.90;;;9.38;100.00;97718.19;5065927;28;20507;-76
2021/05/25 01:17:57;;;;;;;5.90;1.20;;;8.70;99.90;;;9.43;100.00;97725.47;5062461;28;20483;-76
2021/05/25 01:20:28;;;;;;;1.77;0.90;;;8.80;99.90;;;9.35;100.00;97713.34;5062981;28;20471;-76
2021/05/25 01:22:57;;;;;;;3.53;1.30;;;8.70;99.90;;;9.32;100.00;97721.53;5069694;28;20472;-76
2021/05/25 01:25:27;;;;;;;2.60;1.00;;;8.70;99.90;;;9.39;100.00;97722.41;5068465;28;20829;-76
2021/05/25 01:27:59;;;;;;;6.10;1.10;;;8.80;99.90;;;9.39;100.00;97717.19;5068431;28;20517;-76
2021/05/25 01:30:31;;;;;;;1.00;0.90;;;8.90;99.90;;;9.38;100.00;97726.00;5062022;28;20548;-76
2021/05/25 01:33:02;;;;;;;2.90;1.03;;;8.90;99.90;;;9.36;100.00;97717.56;5066858;28;20522;-76
2021/05/25 01:35:31;;;;;;;5.70;1.60;;;8.80;99.90;;;9.37;100.00;97728.81;5067183;28;20553;-75
2021/05/25 01:38:03;;;;;;;5.60;1.70;;;8.80;99.90;;;9.40;100.00;97725.84;5062758;28;20467;-76
2021/05/25 01:40:31;;;;;;;16.17;1.13;;;8.80;99.90;;;9.30;100.00;97722.72;5069748;28;20433;-76
2021/05/25 01:43:00;;;;;;;1.30;1.10;;;8.70;99.90;;;9.28;100.00;97712.47;5064672;28;20464;-76
2021/05/25 01:45:32;;;;;;;5.97;1.20;;;8.70;99.90;;;9.23;100.00;97716.66;5067865;28;20468;-76
2021/05/25 01:48:05;;;;;;;3.53;1.07;;;8.60;99.90;;;9.28;100.00;97720.31;5060412;28;20472;-76
2021/05/25 01:50:35;;;;;;;1.50;1.00;;;8.70;99.90;;;9.29;100.00;97716.69;5064261;28;20844;-76
2021/05/25 01:53:06;;;;;;;6.73;2.43;;;8.70;99.90;;;9.32;100.00;97716.31;5059798;28;20459;-76
2021/05/25 01:55:38;;;;;;;2.10;1.27;;;8.80;99.90;;;9.24;100.00;97713.84;5062933;28;20491;-76
2021/05/25 01:58:10;;;;;;;1.40;1.07;;;8.70;99.90;;;9.18;100.00;97725.03;5067703;28;20452;-76
2021/05/25 02:00:40;;;;;;;1.77;1.00;;;8.60;99.90;;;9.24;100.00;97719.06;5065636;28;20456;-76
2021/05/25 02:03:09;;;;;;;4.23;1.37;;;8.70;99.90;;;9.13;100.00;97716.16;5061647;28;20472;-76
2021/05/25 02:05:38;;;;;;;2.40;1.07;;;8.60;99.90;;;9.13;100.00;97714.31;5065990;28;20455;-76
2021/05/25 02:08:09;;;;;;;3.43;1.30;;;8.60;99.90;;;9.12;100.00;97725.78;5066476;28;20463;-76
2021/05/25 02:10:40;;;;;;;7.23;1.10;;;8.50;99.90;;;9.16;100.00;97736.66;5067287;28;20456;-76
2021/05/25 02:13:11;;;;;;;1.10;1.00;;;8.60;99.90;;;9.16;100.00;97724.41;5065474;28;20460;-76
2021/05/25 02:15:41;;;;;;;5.53;1.30;;;8.60;99.90;;;9.18;100.00;97730.25;5057315;28;21044;-76
2021/05/25 02:18:13;;;;;;;1.63;1.10;;;8.70;99.90;;;9.18;100.00;97724.22;5064102;28;20832;-76
2021/05/25 02:20:45;;;;;;;3.63;1.37;;;8.60;99.90;;;9.18;100.00;97717.19;5064799;28;20467;-76
2021/05/25 02:23:14;;;;;;;5.33;1.10;;;8.70;99.90;;;9.15;100.00;97719.38;5063765;28;20472;-76
2021/05/25 02:25:43;;;;;;;1.43;1.00;;;8.70;99.90;;;9.16;100.00;97718.38;5062339;28;21027;-76
2021/05/25 02:28:13;;;;;;;5.37;1.57;;;8.70;99.90;;;9.03;100.00;97709.41;5064610;28;20468;-76
2021/05/25 02:30:43;;;;;;;5.70;1.17;;;8.50;99.90;;;9.05;100.00;97709.25;5064706;28;20498;-76
2021/05/25 02:33:13;;;;;;;7.83;1.20;;;8.60;99.90;;;8.99;100.00;97712.56;5061065;28;20814;-76
2021/05/25 02:35:44;;;;;;;1.40;1.00;;;8.60;99.90;;;9.01;100.00;97723.66;5063747;28;21102;-76
2021/05/25 02:38:14;;;;;;;1.37;0.97;;;8.50;99.90;;;9.06;100.00;97716.06;5064841;28;20467;-76
2021/05/25 02:40:45;;;;;;;1.63;1.10;;;8.50;99.90;;;9.08;100.00;97724.53;5063982;28;20810;-76
2021/05/25 02:43:15;;;;;;;2.47;1.20;;;8.50;99.90;;;9.08;100.00;97719.31;5063472;28;20483;-76
2021/05/25 02:45:45;;;;;;;3.43;1.23;;;8.50;99.90;;;9.09;100.00;97721.72;5062022;28;20466;-76
2021/05/25 02:48:14;;;;;;;1.83;1.20;;;8.50;99.90;;;9.11;100.00;97721.53;5061804;28;20559;-76
2021/05/25 02:50:44;;;;;;;1.93;1.30;;;8.50;99.90;;;9.06;100.00;97735.13;5064643;28;20510;-76
2021/05/25 02:53:14;;;;;;;1.67;1.27;;;8.50;99.90;;;9.12;100.00;97728.38;5066250;28;20459;-76
2021/05/25 02:55:43;;;;;;;2.60;1.17;;;8.60;99.90;;;9.08;100.00;97729.75;5064722;28;20514;-76
2021/05/25 02:58:12;;;;;;;1.07;0.97;;;8.50;99.90;;;9.06;100.00;97727.31;5067406;28;20464;-76
2021/05/25 03:00:43;;;;;;;2.87;1.47;;;8.50;99.90;;;9.07;100.00;97726.31;5063541;28;20456;-76
2021/05/25 03:03:12;;;;;;;5.80;1.13;;;8.50;99.90;;;9.03;100.00;97742.50;5065372;28;20976;-76
2021/05/25 03:05:42;;;;;;;4.30;1.40;;;8.40;99.90;;;9.04;100.00;97738.91;5064210;28;20464;-76
2021/05/25 03:08:13;;;;;;;2.90;1.30;;;8.40;99.90;;;9.04;100.00;97744.94;5066379;28;20493;-76
2021/05/25 03:10:47;;;;;;;3.23;1.40;;;8.50;99.90;;;9.01;100.00;97749.72;5063782;28;20456;-76
2021/05/25 03:13:16;;;;;;;1.80;1.03;;;8.40;99.90;;;9.05;100.00;97745.75;5066290;28;20474;-76
2021/05/25 03:15:47;;;;;;;3.13;1.30;;;8.50;99.90;;;8.98;100.00;97750.91;5059511;28;20479;-76
2021/05/25 03:18:16;;;;;;;5.07;1.57;;;8.50;99.90;;;8.98;100.00;97748.31;5065191;28;20462;-76
2021/05/25 03:20:48;;;;;;;2.90;1.30;;;8.50;99.90;;;8.95;100.00;97750.47;5062793;28;21025;-76
2021/05/25 03:23:18;;;;;;;1.57;1.30;;;8.50;99.90;;;8.92;100.00;97750.84;5059438;28;20464;-76
2021/05/25 03:25:48;;;;;;;2.80;1.20;;;8.40;99.90;;;8.92;100.00;97761.28;5066392;28;20972;-76
2021/05/25 03:28:17;;;;;;;1.43;1.00;;;8.40;99.90;;;8.92;100.00;97751.63;5068646;28;20451;-76
2021/05/25 03:30:45;;;;;;;6.07;1.53;;;8.30;99.90;;;8.93;100.00;97760.25;5065185;28;20456;-76
2021/05/25 03:33:14;;;;;;;3.10;1.40;;;8.40;99.90;;;8.92;100.00;97756.06;5060977;28;20895;-76
2021/05/25 03:35:42;;;;;;;1.67;1.20;;;8.40;99.90;;;8.82;100.00;97755.50;5064328;28;20476;-76
2021/05/25 03:38:10;;;;;;;1.87;1.20;;;8.20;99.90;;;8.83;100.00;97751.91;5063670;28;20475;-76
2021/05/25 03:40:40;;;;;;;1.30;1.20;;;8.30;99.90;;;8.83;100.00;97751.91;5067329;28;20467;-76
2021/05/25 03:43:08;;;;;;;1.73;1.00;;;8.40;99.90;;;8.81;100.00;97759.13;5070689;28;21021;-76
2021/05/25 03:45:36;;;;;;;1.97;1.00;;;8.30;99.90;;;8.77;100.00;97752.66;5067966;28;20452;-76
2021/05/25 03:48:06;;;;;;;3.67;1.33;;;8.30;99.90;;;8.81;100.00;97759.13;5068842;28;20940;-77
2021/05/25 03:50:34;;;;;;;7.77;1.47;;;8.40;99.90;;;8.74;100.00;97761.66;5064195;28;20468;-76
2021/05/25 03:53:02;;;;;;;1.83;1.03;;;8.30;99.90;;;8.72;100.00;97763.63;5070470;28;20493;-76
2021/05/25 03:55:43;;;;;;;7.73;1.40;;;8.30;99.90;;;8.71;100.00;97764.59;5068846;28;20545;-76
2021/05/25 04:00:59;;;;;;;4.60;1.27;;;8.20;99.90;;;8.82;100.00;97773.75;5069260;28;20511;-76
2021/05/25 04:03:28;;;;;;;1.77;1.23;;;8.20;99.90;;;8.81;100.00;97779.97;5065069;28;20483;-76
2021/05/25 04:05:57;;;;;;;1.83;1.13;;;8.20;99.90;;;8.79;100.00;97781.94;5065349;28;20473;-76
2021/05/25 04:08:25;;;;;;;1.73;1.00;;;8.20;99.90;;;8.78;100.00;97785.56;5067673;28;20459;-76
2021/05/25 04:10:54;;;;;;;2.50;1.10;;;8.30;99.90;;;8.74;100.00;97789.53;5067711;28;20452;-76
2021/05/25 04:13:23;;;;;;;1.00;0.87;;;8.30;99.90;;;8.71;100.00;97789.88;5068406;28;20464;-76
2021/05/25 04:15:51;;;;;;;2.60;1.10;;;8.20;99.90;;;8.71;100.00;97784.69;5066831;28;20488;-76
2021/05/25 04:18:19;;;;;;;1.30;1.03;;;8.20;99.90;;;8.70;100.00;97794.28;5069813;28;20440;-76
2021/05/25 04:20:49;;;;;;;6.10;1.33;;;8.20;99.90;;;8.66;100.00;97792.22;5066092;28;20491;-76
2021/05/25 04:23:17;;;;;;;1.43;0.90;;;8.10;99.90;;;8.68;100.00;97798.06;5066961;28;20468;-76
2021/05/25 04:25:46;;;;;;;3.33;1.27;;;8.20;99.90;;;8.72;100.00;97796.69;5070487;28;20456;-76
2021/05/25 04:28:16;;;;;;;1.17;0.90;;;8.20;99.90;;;8.72;100.00;97802.72;5068081;28;21093;-76
2021/05/25 04:30:46;;;;;;;2.60;1.30;;;8.20;99.90;;;8.73;100.00;97800.94;5067872;28;20807;-76
2021/05/25 04:33:14;;;;;;;1.10;1.00;;;8.20;99.90;;;8.74;100.00;97800.75;5068885;28;20463;-76
2021/05/25 04:35:43;;;;;;;1.23;0.97;;;8.20;99.90;;;8.74;100.00;97805.16;5062715;28;20487;-76
2021/05/25 04:38:13;;;;;;;1.00;0.90;;;8.30;99.90;;;8.64;100.00;97804.63;5062880;28;20453;-76
2021/05/25 04:40:42;;;;;;;1.87;1.27;;;8.00;99.90;;;8.72;100.00;97809.72;5067624;28;20456;-76
2021/05/25 04:43:11;;;;;;;2.33;1.07;;;8.00;99.90;;;8.70;100.00;97809.13;5064422;28;20459;-76
2021/05/25 04:45:41;;;;;;;1.10;1.00;;;8.00;99.90;;;8.68;100.00;97806.69;5064270;28;20448;-76
2021/05/25 04:48:11;;;;;;;2.07;1.00;;;8.00;99.90;;;8.62;100.00;97806.59;5069282;28;20464;-76
2021/05/25 04:50:42;;;;;;;3.17;1.17;;;7.90;99.90;;;8.62;100.00;97817.00;5069147;28;20460;-76
2021/05/25 04:53:10;;;;;;;1.43;1.00;;;7.90;99.90;;;8.69;100.00;97812.69;5068336;28;20460;-76
2021/05/25 04:55:38;;;;;;;5.73;1.10;;;8.10;99.90;;;8.68;100.00;97824.91;5067217;28;20511;-76
2021/05/25 04:58:06;;;;;;;3.13;1.37;;;8.10;99.90;;;8.63;100.00;97816.03;5065606;28;20543;-76
2021/05/25 05:00:35;;;;;;;1.57;1.00;;;8.10;99.90;;;8.58;100.00;97827.00;5062150;28;20961;-76
2021/05/25 05:03:03;;;;;;;1.80;1.50;;;7.90;99.90;;;8.59;100.00;97829.44;5068148;28;20480;-76
2021/05/25 05:05:32;;;;;;;1.87;1.13;;;8.00;99.90;;;8.65;100.00;97827.88;5066292;28;20459;-76
2021/05/25 05:08:00;;;;;;;1.27;1.00;;;8.10;99.90;;;8.68;100.00;97831.97;5066121;28;20464;-76
2021/05/25 05:10:29;;;;;;;1.30;0.97;;;8.10;99.90;;;8.73;100.00;97829.59;5065681;28;20469;-76
2021/05/25 05:12:57;;;;;;;2.00;0.93;;;8.20;99.90;;;8.71;100.00;97837.59;5068494;28;20452;-77
2021/05/25 05:15:25;;;;;;;1.13;1.03;;;8.20;99.90;;;8.68;100.00;97837.94;5067336;28;20476;-76
2021/05/25 05:17:53;;;;;;;2.40;0.93;;;8.20;99.90;;;8.67;100.00;97840.75;5070012;28;20459;-76
2021/05/25 05:20:21;;;;;;;1.00;0.90;;;8.20;99.90;;;8.62;100.00;97846.50;5067620;28;20510;-76
2021/05/25 05:22:50;;;;;;;2.23;1.17;;;8.10;99.90;;;8.67;100.00;97836.34;5066085;28;20470;-76
2021/05/25 05:25:18;;;;;;;1.03;0.93;;;8.10;99.90;;;8.69;100.00;97849.19;5064676;28;20476;-76
2021/05/25 05:27:47;;;;;;;2.07;1.00;;;8.10;99.90;;;8.71;100.00;97842.03;5069001;28;20474;-76
2021/05/25 05:30:17;;;;;;;2.60;0.90;;;8.10;99.90;;;8.70;100.00;97846.41;5062294;28;20952;-76
2021/05/25 05:32:45;;;;;;;2.30;0.90;;;8.10;99.90;;;8.74;100.00;97849.47;5068036;28;21038;-76
2021/05/25 05:35:13;;;;;;;0.80;0.70;;;8.20;99.90;;;8.72;100.00;97851.44;5069105;28;20447;-76
2021/05/25 05:37:42;;;;;;;1.00;0.70;;;8.20;99.90;;;8.57;100.00;97857.44;5063916;28;20495;-76
2021/05/25 05:40:13;;;;;;;1.70;1.20;;;8.00;99.90;;;8.55;100.00;97859.44;5068066;28;20487;-76
2021/05/25 05:43:01;;;;;;;0.80;0.80;;;8.10;99.90;;;8.53;100.00;97856.22;5067059;28;20546;-76
2021/05/25 05:45:30;;;;;;;1.13;1.00;;;8.00;99.90;;;8.56;100.00;97857.66;5066822;28;20990;-76
2021/05/25 05:47:58;;;;;;;1.83;1.37;;;7.80;99.90;;;8.59;100.00;97858.09;5067060;28;20493;-77
2021/05/25 05:50:26;;;;;;;1.17;0.90;;;8.00;99.90;;;8.57;100.00;97862.66;5064131;28;20463;-76
2021/05/25 05:52:55;;;;;;;5.13;0.90;;;8.10;99.90;;;8.47;100.00;97864.72;5067185;28;20464;-75
2021/05/25 05:55:24;;;;;;;2.37;1.20;;;7.90;99.90;;;8.49;100.00;97875.78;5068280;28;20448;-76
2021/05/25 05:57:53;;;;;;;1.83;1.10;;;7.90;99.90;;;8.47;100.00;97876.94;5060629;28;20461;-76
2021/05/25 06:00:23;;;;;;;1.63;0.90;;;8.00;99.90;;;8.53;100.00;97853.59;5065710;28;20468;-76
2021/05/25 06:02:51;;;;;;;1.40;0.90;;;7.90;99.90;;;8.56;100.00;97875.88;5064171;28;20876;-76
2021/05/25 06:05:19;;;;;;;1.30;0.80;;;8.00;99.90;;;8.62;100.00;97863.94;5060172;28;20464;-76
2021/05/25 06:07:47;;;;;;;1.27;1.17;;;8.10;99.90;;;8.62;100.00;97874.34;5066710;28;20674;-76
2021/05/25 06:10:17;;;;;;;0.80;0.80;;;8.10;99.90;;;8.62;100.00;97864.75;5070106;28;20453;-76
2021/05/25 06:12:46;;;;;;;1.90;1.00;;;8.20;99.90;;;8.66;100.00;97873.00;5063240;28;20693;-76
2021/05/25 06:15:15;;;;;;;0.80;0.80;;;8.20;99.90;;;8.70;100.00;97882.09;5068448;28;20473;-76
2021/05/25 06:17:43;;;;;;;1.00;0.90;;;8.20;99.90;;;8.73;100.00;97876.53;5064543;28;20495;-76
2021/05/25 06:20:13;;;;;;;1.80;0.90;;;8.20;99.90;;;8.73;100.00;97882.56;5063163;28;20803;-77
2021/05/25 06:22:43;;;;;;;1.33;0.80;;;8.20;99.90;;;8.71;100.00;97878.50;5065297;28;20507;-76
2021/05/25 06:25:16;;;;;;;1.10;0.90;;;8.10;99.90;;;8.71;100.00;97889.72;5065974;28;20467;-76
2021/05/25 06:27:46;;;;;;;1.50;0.80;;;8.10;99.90;;;8.72;100.00;97901.78;5061770;28;20460;-77
2021/05/25 06:30:19;;;;;;;1.00;0.80;;;8.20;99.90;;;8.67;100.00;97885.06;5066087;28;20941;-77
2021/05/25 06:32:47;;;;;;;1.07;0.70;;;8.20;99.90;;;8.67;100.00;97892.88;5059619;28;20564;-76
2021/05/25 06:35:18;;;;;;;0.70;0.60;;;8.30;99.90;;;8.66;100.00;97894.69;5064358;28;20472;-76
2021/05/25 06:37:46;;;;;;;0.87;0.80;;;8.20;99.90;;;8.65;100.00;97889.63;5066825;28;21000;-76
2021/05/25 06:40:16;;;;;;;1.10;0.90;;;8.10;99.90;;;8.69;100.00;97901.31;5064892;28;20510;-76
2021/05/25 06:42:45;;;;;;;0.80;0.70;;;8.20;99.90;;;8.75;100.00;97903.22;5055500;28;20466;-76
2021/05/25 06:45:15;;;;;;;0.90;0.80;;;8.20;99.90;;;8.79;100.00;97909.69;5063596;28;20465;-76
2021/05/25 06:47:43;;;;;;;1.00;0.73;;;8.30;99.90;;;8.81;100.00;97912.94;5062694;28;20485;-76
2021/05/25 06:50:13;;;;;;;1.63;0.97;;;8.30;99.90;;;8.81;100.00;97918.16;5064456;28;20459;-76
2021/05/25 06:52:42;;;;;;;1.40;1.00;;;8.30;99.90;;;8.77;100.00;97904.66;5065449;28;20448;-76
2021/05/25 06:55:12;;;;;;;0.80;0.70;;;8.30;99.90;;;8.74;100.00;97914.66;5060618;28;20547;-76
2021/05/25 06:57:45;;;;;;;3.70;0.80;;;8.20;99.90;;;8.69;100.00;97916.97;5067575;28;20497;-76
2021/05/25 07:00:15;;;;;;;0.70;0.70;;;8.10;99.90;;;8.68;100.00;97920.56;5061885;28;20465;-76
2021/05/25 07:02:44;;;;;;;1.13;0.80;;;8.10;99.90;;;8.71;100.00;97925.44;5066785;28;20479;-76
2021/05/25 07:05:13;;;;;;;0.70;0.70;;;8.10;99.90;;;8.71;100.00;97925.44;5059403;28;20471;-76
2021/05/25 07:07:41;;;;;;;0.90;0.80;;;8.10;99.90;;;8.74;100.00;97931.09;5065063;28;20480;-76
2021/05/25 07:10:10;;;;;;;3.13;1.13;;;8.10;99.90;;;8.76;100.00;97930.91;5061698;28;20538;-76
2021/05/25 07:12:38;;;;;;;0.97;0.87;;;8.20;99.90;;;8.81;100.00;97928.59;5063677;28;20453;-76
2021/05/25 07:15:11;;;;;;;0.80;0.80;;;8.20;99.90;;;8.79;100.00;97930.53;5066172;28;20456;-76
2021/05/25 07:17:46;;;;;;;2.40;1.07;;;8.20;99.90;;;8.80;100.00;97935.59;5062754;28;20587;-76
2021/05/25 07:20:14;;;;;;;2.23;1.17;;;8.20;99.90;;;8.80;100.00;97940.00;5067230;28;20445;-79
2021/05/25 07:22:43;;;;;;;2.10;1.40;;;8.20;99.90;;;8.86;100.00;97945.31;5059082;28;20445;-76
2021/05/25 07:25:12;;;;;;;1.13;1.00;;;8.30;99.90;;;8.85;100.00;97938.47;5064099;28;20460;-76
2021/05/25 07:27:40;;;;;;;0.80;0.80;;;8.40;99.90;;;8.88;100.00;97938.13;5065541;28;20452;-76
2021/05/25 07:30:14;;;;;;;38.93;21.00;;;8.40;99.90;;;8.93;100.00;97942.78;5059806;28;20468;-78
2021/05/25 07:32:43;;;;;;;1.13;0.90;;;8.40;99.90;;;8.95;100.00;97940.81;5057124;28;20465;-76
2021/05/25 07:35:15;;;;;;;1.10;1.00;;;8.50;99.90;;;8.89;100.00;97944.94;5065807;28;20507;-77
2021/05/25 07:37:43;;;;;;;1.30;0.90;;;8.40;99.90;;;8.98;100.00;97953.50;5067448;28;20499;-77
2021/05/25 07:40:15;;;;;;;1.60;0.77;;;8.50;99.90;;;8.94;100.00;97954.84;5065106;28;20440;-77
2021/05/25 07:42:43;;;;;;;0.90;0.70;;;8.40;99.90;;;8.99;100.00;97949.88;5060485;28;20441;-77
2021/05/25 07:45:15;;;;;;;1.30;0.80;;;8.50;99.90;;;9.05;100.00;97959.63;5063811;28;20805;-77
2021/05/25 07:47:44;;;;;;;1.63;0.70;;;8.50;99.90;;;9.06;100.00;97956.81;5062559;28;20533;-77
2021/05/25 07:50:14;;;;;;;2.60;1.57;;;8.50;99.90;;;9.07;100.00;97958.44;5064618;28;20471;-76
2021/05/25 07:52:44;;;;;;;0.70;0.70;;;8.50;99.90;;;9.13;100.00;97972.56;5066668;28;20918;-76
2021/05/25 07:55:18;;;;;;;1.57;0.97;;;8.60;99.90;;;9.07;100.00;97974.09;5068309;28;20547;-76
2021/05/25 07:57:46;;;;;;;2.07;1.00;;;8.50;99.90;;;9.06;100.00;97976.88;5067780;28;20500;-76
2021/05/25 08:00:17;;;;;;;1.00;0.90;;;8.60;99.90;;;8.98;100.00;97988.22;5065103;28;20456;-76
2021/05/25 08:02:46;;;;;;;0.90;0.70;;;8.50;99.90;;;9.04;100.00;97990.09;5068503;28;20479;-81
2021/05/25 08:05:17;;;;;;;1.63;1.20;;;8.50;99.90;;;9.00;100.00;97994.06;5063658;28;20471;-77
2021/05/25 08:07:46;;;;;;;1.87;0.90;;;8.50;99.90;;;8.97;100.00;98004.03;5068070;28;20802;-77
2021/05/25 08:10:16;;;;;;;0.80;0.80;;;8.40;99.90;;;9.05;100.00;98009.19;5064500;28;20438;-77
2021/05/25 08:12:45;;;;;;;1.10;0.80;;;8.40;99.90;;;9.02;100.00;98001.72;5067521;28;20921;-76
2021/05/25 08:15:18;;;;;;;0.80;0.80;;;8.40;99.90;;;9.05;100.00;98017.00;5067022;28;20460;-77
2021/05/25 08:17:57;;;;;;;3.40;1.07;;;8.50;99.90;;;9.15;100.00;98011.53;5067347;28;20475;-76
2021/05/25 08:20:27;;;;;;;2.00;1.10;;;8.60;99.90;;;9.16;100.00;98016.56;5066563;28;20539;-77
2021/05/25 08:23:15;;;;;;;1.63;0.93;;;8.50;99.90;;;9.22;100.00;98013.25;5057846;28;20782;-77
2021/05/25 08:25:45;;;;;;;1.87;0.87;;;8.70;99.90;;;9.23;100.00;98024.50;5068429;28;20444;-77
2021/05/25 08:28:14;;;;;;;2.50;0.80;;;8.60;99.90;;;9.21;100.00;98026.44;5066985;28;20452;-76
2021/05/25 08:30:45;;;;;;;1.17;0.80;;;8.60;99.90;;;9.30;100.00;98026.19;5071216;28;20849;-76
2021/05/25 08:33:17;;;;;;;1.43;0.73;;;8.80;99.90;;;9.37;100.00;98027.09;5071451;28;20852;-77
2021/05/25 08:35:49;;;;;;;1.77;0.80;;;8.80;99.90;;;9.50;100.00;98036.91;5070695;28;20464;-76
2021/05/25 08:38:21;;;;;;;14.63;6.90;;;8.90;99.90;;;9.51;100.00;98034.09;5074056;28;20497;-78
2021/05/25 08:40:54;;;;;;;0.97;0.90;;;8.90;99.90;;;9.50;100.00;98037.72;5067131;28;20464;-77
2021/05/25 08:43:23;;;;;;;0.90;0.80;;;9.00;99.90;;;9.55;100.00;98040.59;5071235;28;20440;-77
2021/05/25 08:45:52;;;;;;;2.90;1.00;;;9.00;99.90;;;9.61;100.00;98049.53;5071463;28;20439;-76
2021/05/25 08:48:21;;;;;;;0.87;0.80;;;9.10;99.90;;;9.64;100.00;98058.78;5070910;28;20443;-77
2021/05/25 08:50:57;;;;;;;1.17;0.90;;;9.10;99.90;;;9.68;100.00;98060.06;5069874;28;20451;-77
2021/05/25 08:53:26;;;;;;;1.17;0.80;;;9.10;99.90;;;9.57;100.00;98069.13;5065648;28;20452;-77
2021/05/25 08:55:55;;;;;;;0.80;0.77;;;9.00;99.90;;;9.65;100.00;98073.47;5070728;28;20518;-76
2021/05/25 08:58:25;;;;;;;0.83;0.80;;;9.10;99.90;;;9.65;100.00;98069.03;5067049;28;20498;-76
2021/05/25 09:00:57;;;;;;;0.80;0.70;;;9.10;99.90;;;9.70;100.00;98063.28;5069441;28;20497;-76
2021/05/25 09:03:27;;;;;;;1.10;0.87;;;9.20;99.90;;;9.68;100.00;98067.88;5065455;28;20484;-76
2021/05/25 09:05:59;;;;;;;1.57;1.00;;;9.10;99.90;;;9.73;100.00;98068.94;5065315;28;20441;-76
2021/05/25 09:08:28;;;;;;;1.07;0.90;;;9.20;99.90;;;9.89;100.00;98058.28;5064075;28;20460;-75
2021/05/25 09:10:59;;;;;;;1.07;0.90;;;9.40;99.90;;;9.96;100.00;98068.84;5066365;28;20882;-75
2021/05/25 09:13:27;;;;;;;0.90;0.80;;;9.40;99.90;;;10.02;100.00;98062.88;5062023;28;20461;-75
2021/05/25 09:15:59;;;;;;;0.90;0.70;;;9.50;99.90;;;10.02;100.00;98065.50;5061359;28;20459;-75
2021/05/25 09:18:29;;;;;;;2.80;1.10;;;9.50;99.90;;;10.08;100.00;98072.59;5064180;28;20505;-76
2021/05/25 09:21:00;;;;;;;0.97;0.80;;;9.60;99.90;;;10.09;100.00;98069.00;5067776;28;20460;-76
2021/05/25 09:23:46;;;;;;;2.13;1.03;;;9.50;99.90;;;10.15;100.00;98077.94;5068064;28;20466;-76
2021/05/25 09:26:27;;;;;;;1.20;1.00;;;9.60;99.90;;;10.25;100.00;98068.00;5064927;28;20951;-76
2021/05/25 09:28:59;;;;;;;3.20;1.00;;;9.80;99.90;;;10.13;100.00;98079.91;5069952;28;20448;-77
2021/05/25 09:31:36;;;;;;;5.03;1.00;;;9.50;99.90;;;10.15;100.00;98068.28;5064889;28;20502;-76
2021/05/25 09:34:09;;;;;;;1.50;0.93;;;9.60;99.90;;;10.19;100.00;98074.78;5067904;28;20464;-76
2021/05/25 09:37:00;;;;;;;22.40;11.77;;;9.60;99.90;;;10.32;100.00;98079.34;5070214;28;20497;-76
2021/05/25 09:39:31;;;;;;;2.00;1.17;;;9.70;99.90;;;10.39;100.00;98085.44;5064405;28;20844;-77
2021/05/25 09:42:01;;;;;;;2.30;1.20;;;9.80;99.90;;;10.45;100.00;98090.75;5069520;28;20437;-77
2021/05/25 09:44:30;;;;;;;2.50;0.90;;;9.80;99.90;;;10.51;100.00;98104.91;5069079;28;20455;-77
2021/05/25 09:47:01;;;;;;;2.60;1.77;;;9.90;99.90;;;10.58;100.00;98096.13;5069720;28;20771;-77
2021/05/25 09:49:29;;;;;;;5.27;1.40;;;10.10;99.90;;;10.67;100.00;98107.28;5069195;28;20441;-76
2021/05/25 09:52:05;;;;;;;3.40;1.37;;;10.10;99.90;;;10.64;100.00;98097.19;5069566;28;20444;-76
2021/05/25 09:54:34;;;;;;;1.60;1.07;;;10.10;99.90;;;10.76;100.00;98105.34;5068123;28;21026;-76
2021/05/25 09:57:04;;;;;;;3.07;1.27;;;10.20;99.90;;;10.80;100.00;98094.31;5069938;28;20440;-76
2021/05/25 09:59:34;;;;;;;3.53;1.27;;;10.10;99.90;;;10.91;100.00;98090.38;5069114;28;20436;-77
2021/05/25 10:02:18;;;;;;;6.83;1.40;;;10.30;99.90;;;10.91;100.00;98106.09;5069684;28;20437;-77
2021/05/25 10:05:04;;;;;;;3.47;1.47;;;10.30;99.90;;;10.95;100.00;98102.91;5066631;28;20452;-77
2021/05/25 10:07:35;;;;;;;1.57;1.07;;;10.30;99.90;;;10.97;100.00;98110.56;5068831;28;20464;-76
2021/05/25 10:10:07;;;;;;;4.50;1.50;;;10.40;99.90;;;11.02;100.00;98116.88;5069405;28;20866;-76
2021/05/25 10:12:37;;;;;;;3.47;1.20;;;10.40;99.90;;;11.14;100.00;98111.94;5069316;28;20448;-76
2021/05/25 10:15:07;;;;;;;4.43;1.37;;;10.60;99.90;;;11.12;100.00;98103.47;5069470;28;20955;-76
2021/05/25 10:17:44;;;;;;;5.47;1.27;;;10.60;99.90;;;11.08;100.00;98112.69;5065706;28;20507;-76
2021/05/25 10:20:13;;;;;;;3.17;1.63;;;10.50;99.90;;;11.20;100.00;98110.38;5068577;28;20502;-76
2021/05/25 10:22:42;;;;;;;1.00;0.90;;;10.60;99.90;;;11.30;100.00;98110.84;5062071;28;20863;-76
2021/05/25 10:25:16;;;;;;;3.17;1.50;;;10.70;99.90;;;11.27;100.00;98129.56;5068950;28;20503;-77
2021/05/25 10:27:45;;;;;;;2.53;1.10;;;10.70;99.90;;;11.41;100.00;98121.63;5069208;28;20451;-77
2021/05/25 10:30:44;;;;;;;3.13;1.10;;;10.80;99.90;;;11.45;100.00;98137.75;5068244;28;20809;-77
2021/05/25 10:33:32;;;;;;;3.40;1.87;;;10.90;99.90;;;11.45;100.00;98138.53;5068118;28;20440;-77
2021/05/25 10:36:09;;;;;;;5.43;1.53;;;10.80;99.90;;;11.39;100.00;98152.41;5068879;28;20432;-77
2021/05/25 10:38:56;;;;;;;12.80;1.40;;;10.80;99.90;;;11.40;100.00;98150.59;5067805;28;20497;-76
2021/05/25 10:41:33;;;;;;;2.60;1.63;;;10.80;99.90;;;11.35;100.00;98151.16;5059936;28;20480;-77